Time;durP1;ratioP1;P1;durP2;ratioP2;P2;SDS_P1;SDS_P2;PMS_P1;PMS_P2;Temp;Humidity;BMP_temperature;BMP_pressure;BME280_temperature;BME280_humidity;BME280_pressure;Samples;Min_cycle;Max_cycle;Signal;HPM_P1;HPM_P2
2022/07/10 00:01:12;;;;;;;0.00;0.00;;;;;;;14.37;100.00;102674.03;10438465;28;20048;-79
2022/07/10 00:06:14;;;;;;;0.00;0.00;;;;;;;14.38;100.00;102668.03;10426776;28;20464;-79
2022/07/10 00:11:15;;;;;;;0.57;0.30;;;;;;;14.33;100.00;102664.41;10433576;28;20052;-80
2022/07/10 00:16:18;;;;;;;0.00;0.00;;;;;;;14.45;100.00;102662.25;10414254;28;20073;-80
2022/07/10 00:21:20;;;;;;;0.00;0.00;;;;;;;14.27;100.00;102658.13;10450293;28;20037;-80
2022/07/10 00:26:22;;;;;;;1.67;0.22;;;;;;;14.47;100.00;102645.06;10440919;28;20099;-80
2022/07/10 00:31:23;;;;;;;0.00;0.00;;;;;;;14.37;100.00;102648.13;10427209;28;20480;-80
2022/07/10 00:36:25;;;;;;;0.00;0.00;;;;;;;14.39;100.00;102654.25;10448341;28;20436;-80
2022/07/10 00:41:27;;;;;;;0.10;0.10;;;;;;;14.37;100.00;102648.13;10457828;28;20045;-80
2022/07/10 00:46:30;;;;;;;0.22;0.05;;;;;;;14.26;100.00;102652.91;10453663;28;20037;-80
2022/07/10 00:51:33;;;;;;;0.03;0.03;;;;;;;14.17;100.00;102639.56;10439624;28;20052;-79
2022/07/10 00:56:35;;;;;;;0.00;0.00;;;;;;;13.96;100.00;102636.19;10457932;28;20464;-79
2022/07/10 01:01:37;;;;;;;0.00;0.00;;;;;;;13.74;100.00;102641.31;10456536;28;20396;-79
2022/07/10 01:06:39;;;;;;;0.82;0.65;;;;;;;13.66;100.00;102645.34;10457109;28;20102;-79
2022/07/10 01:11:41;;;;;;;0.95;0.55;;;;;;;13.64;100.00;102643.56;10447505;28;20106;-79
2022/07/10 01:16:43;;;;;;;0.00;0.00;;;;;;;13.64;100.00;102646.16;10439045;28;20454;-80
2022/07/10 01:21:45;;;;;;;0.85;0.25;;;;;;;13.67;100.00;102636.72;10456451;28;20051;-80
2022/07/10 01:26:47;;;;;;;0.10;0.10;;;;;;;13.59;100.00;102632.13;10456892;28;20037;-79
2022/07/10 01:31:48;;;;;;;0.00;0.00;;;;;;;13.35;100.00;102629.34;10425623;28;20052;-79
2022/07/10 01:36:57;;;;;;;0.05;0.00;;;;;;;13.17;100.00;102624.28;10438381;28;20053;-80
2022/07/10 01:41:59;;;;;;;0.08;0.00;;;;;;;13.02;100.00;102616.78;10455229;28;20515;-80
2022/07/10 01:47:01;;;;;;;0.00;0.00;;;;;;;12.94;100.00;102624.19;10436941;28;20063;-80
2022/07/10 01:52:03;;;;;;;0.00;0.00;;;;;;;12.82;100.00;102626.25;10456499;28;20037;-79
2022/07/10 01:57:05;;;;;;;0.00;0.00;;;;;;;12.82;100.00;102627.09;10437178;28;20416;-79
2022/07/10 02:02:07;;;;;;;0.40;0.30;;;;;;;12.66;100.00;102620.38;10437174;28;20431;-80
2022/07/10 02:07:15;;;;;;;0.00;0.00;;;;;;;12.43;100.00;102627.09;10436924;28;20091;-80
2022/07/10 02:12:17;;;;;;;0.03;0.03;;;;;;;12.22;100.00;102611.47;10459981;28;20049;-80
2022/07/10 02:17:19;;;;;;;0.00;0.00;;;;;;;12.26;100.00;102615.97;10436775;28;20485;-79
2022/07/10 02:22:20;;;;;;;0.10;0.10;;;;;;;12.09;100.00;102614.31;10436266;28;20556;-79
2022/07/10 02:27:22;;;;;;;0.00;0.00;;;;;;;11.90;100.00;102598.78;10436814;28;20044;-79
2022/07/10 02:32:24;;;;;;;0.00;0.00;;;;;;;11.81;100.00;102592.28;10419641;28;20091;-79
2022/07/10 02:37:25;;;;;;;0.00;0.00;;;;;;;11.83;100.00;102599.31;10453561;28;20048;-78
2022/07/10 02:42:27;;;;;;;0.80;0.30;;;;;;;11.91;100.00;102589.34;10435687;28;20084;-79
2022/07/10 02:47:29;;;;;;;0.00;0.00;;;;;;;11.85;100.00;102589.03;10453350;28;20049;-80
2022/07/10 02:52:30;;;;;;;0.00;0.00;;;;;;;11.77;100.00;102585.22;10452457;28;20036;-80
2022/07/10 02:57:32;;;;;;;0.00;0.00;;;;;;;11.73;100.00;102595.38;10451944;28;20060;-79
2022/07/10 03:02:33;;;;;;;0.00;0.00;;;;;;;11.58;100.00;102589.47;10447984;28;20438;-79
2022/07/10 03:07:35;;;;;;;0.10;0.10;;;;;;;11.53;100.00;102588.38;10451301;28;20052;-79
2022/07/10 03:12:37;;;;;;;0.00;0.00;;;;;;;11.33;100.00;102593.44;10450147;28;20033;-79
2022/07/10 03:17:39;;;;;;;0.00;0.00;;;;;;;11.35;100.00;102589.25;10436298;28;20048;-80
2022/07/10 03:22:42;;;;;;;0.22;0.00;;;;;;;11.49;100.00;102601.94;10450906;28;20056;-79
2022/07/10 03:27:46;;;;;;;0.00;0.00;;;;;;;11.47;100.00;102606.13;10449106;28;20049;-79
2022/07/10 03:32:48;;;;;;;0.15;0.08;;;;;;;11.17;100.00;102603.78;10448757;28;20036;-79
2022/07/10 03:37:50;;;;;;;0.15;0.10;;;;;;;11.24;100.00;102608.44;10431018;28;20045;-79
2022/07/10 03:42:51;;;;;;;0.00;0.00;;;;;;;11.30;100.00;102598.44;10435501;28;20160;-79
2022/07/10 03:47:53;;;;;;;0.28;0.00;;;;;;;11.34;100.00;102605.53;10444445;28;20048;-79
2022/07/10 03:52:55;;;;;;;0.00;0.00;;;;;;;11.20;100.00;102606.53;10435294;28;20037;-79
2022/07/10 03:57:57;;;;;;;0.15;0.15;;;;;;;11.48;100.00;102602.75;10416794;28;20049;-80
2022/07/10 04:03:05;;;;;;;0.00;0.00;;;;;;;11.96;100.00;102603.34;10452660;28;20041;-79
2022/07/10 04:08:08;;;;;;;0.15;0.15;;;;;;;12.11;100.00;102604.91;10458949;28;20045;-79
2022/07/10 04:13:10;;;;;;;0.00;0.00;;;;;;;12.31;100.00;102604.16;10445971;28;20043;-80
2022/07/10 04:18:12;;;;;;;0.10;0.10;;;;;;;12.57;100.00;102603.56;10435184;28;20063;-79
2022/07/10 04:23:13;;;;;;;0.08;0.08;;;;;;;12.78;100.00;102601.94;10440928;28;20088;-80
2022/07/10 04:28:15;;;;;;;5.28;0.20;;;;;;;12.92;100.00;102596.47;10445403;28;20068;-80
2022/07/10 04:33:17;;;;;;;0.30;0.10;;;;;;;13.05;100.00;102597.91;10443522;28;20522;-80
2022/07/10 04:38:19;;;;;;;0.00;0.00;;;;;;;13.23;100.00;102593.50;10438712;28;20051;-79
2022/07/10 04:43:21;;;;;;;0.10;0.10;;;;;;;13.40;100.00;102598.53;10419931;28;20062;-78
2022/07/10 04:48:23;;;;;;;0.10;0.10;;;;;;;13.47;100.00;102608.31;10439857;28;20403;-78
2022/07/10 04:53:25;;;;;;;0.00;0.00;;;;;;;13.59;100.00;102598.44;10450201;28;20044;-78
2022/07/10 04:58:26;;;;;;;1.65;0.75;;;;;;;13.67;100.00;102597.88;10439907;28;20060;-79
2022/07/10 05:03:28;;;;;;;0.10;0.10;;;;;;;13.86;100.00;102591.72;10459413;28;20052;-75
2022/07/10 05:08:31;;;;;;;0.00;0.00;;;;;;;13.93;100.00;102589.44;10444904;28;20045;-75
2022/07/10 05:13:35;;;;;;;0.00;0.00;;;;;;;14.10;100.00;102589.22;10462005;28;20045;-76
2022/07/10 05:18:36;;;;;;;0.10;0.05;;;;;;;14.14;100.00;102590.22;10444896;28;20056;-75
2022/07/10 05:23:39;;;;;;;0.10;0.10;;;;;;;14.43;100.00;102592.19;10444655;28;20056;-76
2022/07/10 05:28:40;;;;;;;0.05;0.00;;;;;;;14.36;100.00;102597.97;10444770;28;20048;-76
2022/07/10 05:40:37;;;;;;;0.08;0.08;;;;;;;14.53;100.00;102603.78;10462236;28;20033;-75
2022/07/10 05:45:38;;;;;;;1.13;0.05;;;;;;;14.65;100.00;102592.09;10461493;28;20051;-76
2022/07/10 05:50:46;;;;;;;0.30;0.10;;;;;;;14.72;100.00;102594.09;10444367;28;20041;-75
2022/07/10 05:55:48;;;;;;;0.00;0.00;;;;;;;14.92;100.00;102579.25;10443124;28;20060;-75
2022/07/10 06:00:50;;;;;;;0.03;0.03;;;;;;;14.93;100.00;102585.34;10460807;28;20099;-75
2022/07/10 06:05:52;;;;;;;0.03;0.03;;;;;;;14.99;100.00;102599.38;10460792;28;20056;-75
2022/07/10 06:10:53;;;;;;;0.00;0.00;;;;;;;15.17;100.00;102588.75;10426104;28;20067;-75
2022/07/10 06:15:55;;;;;;;0.30;0.10;;;;;;;15.04;100.00;102592.63;10460296;28;20041;-75
2022/07/10 06:27:50;;;;;;;0.73;0.30;;;;;;;15.51;100.00;102595.06;10459517;28;20025;-76
2022/07/10 06:32:51;;;;;;;0.00;0.00;;;;;;;15.72;100.00;102588.78;10441628;28;20055;-75
2022/07/10 06:37:53;;;;;;;0.00;0.00;;;;;;;15.49;100.00;102591.53;10441619;28;20419;-75
2022/07/10 06:42:55;;;;;;;0.00;0.00;;;;;;;15.55;100.00;102583.06;10459649;28;20116;-76
2022/07/10 06:47:58;;;;;;;0.40;0.40;;;;;;;15.78;100.00;102589.00;10477332;28;20272;-76
2022/07/10 06:53:00;;;;;;;0.15;0.00;;;;;;;15.83;100.00;102587.44;10469284;28;20037;-76
2022/07/10 06:58:02;;;;;;;0.10;0.10;;;;;;;15.77;100.00;102584.63;10469796;28;20591;-76
2022/07/10 07:03:03;;;;;;;0.00;0.00;;;;;;;15.98;100.00;102580.94;10483574;28;20041;-76
2022/07/10 07:08:05;;;;;;;0.47;0.30;;;;;;;16.20;100.00;102587.69;10440937;28;20200;-75
2022/07/10 07:13:09;;;;;;;0.80;0.52;;;;;;;16.29;100.00;102580.16;10458588;28;20041;-75
2022/07/10 07:18:15;;;;;;;0.00;0.00;;;;;;;16.06;100.00;102581.19;10458109;28;20072;-75
2022/07/10 07:23:18;;;;;;;0.00;0.00;;;;;;;15.96;100.00;102585.25;10439961;28;20123;-75
2022/07/10 07:28:22;;;;;;;0.05;0.05;;;;;;;15.84;100.00;102591.81;10440098;28;20045;-75
2022/07/10 07:33:24;;;;;;;0.00;0.00;;;;;;;15.72;100.00;102588.78;10457451;28;20404;-75
2022/07/10 07:38:25;;;;;;;0.63;0.45;;;;;;;15.79;100.00;102593.34;10456310;28;20132;-75
2022/07/10 07:43:27;;;;;;;0.00;0.00;;;;;;;16.11;100.00;102601.31;10439316;28;20091;-75
2022/07/10 07:48:29;;;;;;;0.10;0.00;;;;;;;16.22;100.00;102608.53;10456965;28;20072;-75
2022/07/10 07:53:30;;;;;;;2.10;0.43;;;;;;;16.06;100.00;102597.66;10438995;28;20090;-76
2022/07/10 07:58:32;;;;;;;1.85;0.10;;;;;;;15.55;100.00;102628.09;10456672;28;20132;-75
2022/07/10 08:03:34;;;;;;;0.75;0.28;;;;;;;15.51;100.00;102635.75;10439012;28;20370;-74
2022/07/10 08:08:56;;;;;;;0.10;0.00;;;;;;;15.54;100.00;102641.91;10444912;28;20044;-75
2022/07/10 08:13:58;;;;;;;0.05;0.05;;;;;;;15.75;100.00;102629.59;10462385;28;20052;-75
2022/07/10 08:18:59;;;;;;;0.25;0.15;;;;;;;15.94;100.00;102624.16;10466544;28;20056;-74
2022/07/10 08:24:01;;;;;;;0.20;0.20;;;;;;;16.44;100.00;102610.03;10439777;28;20408;-74
2022/07/10 08:29:02;;;;;;;0.00;0.00;;;;;;;16.44;100.00;102610.03;10458704;28;20399;-75
2022/07/10 08:34:04;;;;;;;0.03;0.03;;;;;;;16.40;100.00;102615.97;10440721;28;20041;-75
2022/07/10 08:39:06;;;;;;;0.80;0.43;;;;;;;16.72;100.00;102609.09;10457149;28;20436;-75
2022/07/10 08:44:08;;;;;;;0.25;0.25;;;;;;;17.15;100.00;102598.97;10456929;28;20044;-74
2022/07/10 08:49:13;;;;;;;0.60;0.10;;;;;;;16.87;100.00;102594.72;10460735;28;20477;-74
2022/07/10 08:54:17;;;;;;;0.10;0.10;;;;;;;16.46;100.00;102604.03;10449337;28;20514;-75
2022/07/10 08:59:23;;;;;;;0.30;0.28;;;;;;;15.77;100.00;102612.34;10480129;28;20045;-75
2022/07/10 09:04:32;;;;;;;0.00;0.00;;;;;;;15.71;100.00;102628.59;10449149;28;20049;-74
2022/07/10 09:09:54;;;;;;;0.00;0.00;;;;;;;16.18;100.00;102629.25;10445331;28;20103;-73
2022/07/10 09:15:15;;;;;;;0.03;0.03;;;;;;;16.55;100.00;102623.38;10464515;28;20062;-74
2022/07/10 09:20:29;;;;;;;0.00;0.00;;;;;;;15.97;100.00;102619.06;10445521;28;20559;-74
2022/07/10 09:25:32;;;;;;;0.00;0.00;;;;;;;16.04;100.00;102617.56;10446105;28;20049;-74
2022/07/10 09:30:41;;;;;;;0.00;0.00;;;;;;;15.84;100.00;102615.19;10444250;28;20037;-73
2022/07/10 09:36:04;;;;;;;0.10;0.03;;;;;;;15.69;100.00;102620.78;10461025;28;20049;-74
2022/07/10 09:41:27;;;;;;;0.10;0.00;;;;;;;15.60;100.00;102630.00;10444156;28;20095;-74
2022/07/10 09:46:32;;;;;;;0.10;0.05;;;;;;;15.93;100.00;102629.31;10462683;28;20407;-74
2022/07/10 09:51:42;;;;;;;0.00;0.00;;;;;;;15.81;100.00;102624.56;10444181;28;20045;-73
2022/07/10 09:56:53;;;;;;;0.73;0.20;;;;;;;16.26;100.00;102623.41;10443275;28;20048;-74
2022/07/10 10:01:56;;;;;;;0.38;0.30;;;;;;;16.24;100.00;102609.47;10442710;28;20041;-74
2022/07/10 10:07:00;;;;;;;2.53;0.15;;;;;;;16.45;100.00;102604.88;10460400;28;20045;-74
2022/07/10 10:12:09;;;;;;;0.57;0.50;;;;;;;16.40;100.00;102600.38;10426628;28;20047;-74
2022/07/10 10:17:12;;;;;;;0.30;0.30;;;;;;;16.99;100.00;102605.53;10443187;28;20387;-74
2022/07/10 10:22:15;;;;;;;0.20;0.20;;;;;;;17.49;100.00;102596.34;10441956;28;20051;-73
2022/07/10 10:27:18;;;;;;;0.17;0.15;;;;;;;16.80;100.00;102584.16;10441755;28;20049;-74
2022/07/10 10:32:20;;;;;;;0.00;0.00;;;;;;;16.69;100.00;102595.09;10442094;28;20079;-74
2022/07/10 10:37:38;;;;;;;0.00;0.00;;;;;;;16.73;100.00;102579.63;10459331;28;20444;-74
2022/07/10 10:42:43;;;;;;;0.00;0.00;;;;;;;16.98;100.00;102575.13;10441778;28;20049;-75
2022/07/10 10:48:05;;;;;;;0.45;0.20;;;;;;;17.56;100.00;102564.38;10441655;28;20116;-74
2022/07/10 10:53:29;;;;;;;0.28;0.15;;;;;;;17.62;100.00;102559.28;10459169;28;20377;-74
2022/07/10 10:58:41;;;;;;;0.10;0.10;;;;;;;17.50;100.00;102570.31;10458581;28;20044;-75
2022/07/10 11:04:08;;;;;;;0.30;0.30;;;;;;;17.20;100.00;102566.09;10440539;28;20407;-74
2022/07/10 11:09:25;;;;;;;0.00;0.00;;;;;;;17.15;100.00;102572.06;10458165;28;20045;-74
2022/07/10 11:14:29;;;;;;;0.47;0.15;;;;;;;16.84;100.00;102576.44;10440006;28;20381;-74
2022/07/10 11:19:32;;;;;;;0.10;0.10;;;;;;;16.84;100.00;102574.69;10456759;28;20056;-74
2022/07/10 11:24:37;;;;;;;0.43;0.28;;;;;;;16.87;100.00;102571.28;10457593;28;20045;-75
2022/07/10 11:29:39;;;;;;;0.08;0.08;;;;;;;18.07;100.00;102558.59;10439609;28;20067;-74
2022/07/10 11:34:41;;;;;;;0.00;0.00;;;;;;;18.38;100.00;102538.34;10456159;28;20052;-74
2022/07/10 11:39:43;;;;;;;1.20;0.35;;;;;;;18.94;100.00;102518.50;10439109;28;20110;-75
2022/07/10 11:44:44;;;;;;;0.15;0.15;;;;;;;19.31;100.00;102513.88;10440522;28;20049;-74
2022/07/10 11:49:47;;;;;;;0.90;0.43;;;;;;;19.45;100.00;102510.59;10438992;28;20041;-76
2022/07/10 11:54:49;;;;;;;0.43;0.10;;;;;;;19.42;100.00;102510.53;10457148;28;20056;-76
2022/07/10 11:59:50;;;;;;;0.30;0.20;;;;;;;20.25;100.00;102495.06;10456408;28;20049;-75
2022/07/10 12:04:52;;;;;;;0.50;0.32;;;;;;;19.78;100.00;102493.59;10439494;28;20040;-75
2022/07/10 12:09:54;;;;;;;0.10;0.10;;;;;;;20.08;100.00;102492.25;10438815;28;20550;-76
2022/07/10 12:14:55;;;;;;;0.00;0.00;;;;;;;20.17;100.00;102481.88;10457731;28;20163;-76
2022/07/10 12:19:57;;;;;;;0.00;0.00;;;;;;;19.81;100.00;102488.41;10438311;28;20055;-75
2022/07/10 12:24:59;;;;;;;0.00;0.00;;;;;;;19.53;100.00;102500.22;10458806;28;20048;-75
2022/07/10 12:30:01;;;;;;;0.13;0.05;;;;;;;18.67;100.00;102514.50;10465070;28;20041;-75
2022/07/10 12:35:05;;;;;;;0.17;0.17;;;;;;;18.34;100.00;102519.97;10430213;28;20140;-75
2022/07/10 12:40:11;;;;;;;0.10;0.03;;;;;;;18.71;100.00;102528.50;10446165;28;20055;-76
2022/07/10 12:45:14;;;;;;;0.65;0.40;;;;;;;19.53;100.00;102514.19;10464531;28;20400;-76
2022/07/10 12:50:22;;;;;;;0.00;0.00;;;;;;;19.02;100.00;102516.00;10468770;28;20083;-76
2022/07/10 12:55:34;;;;;;;0.03;0.03;;;;;;;19.56;100.00;102508.13;10428641;28;20034;-74
2022/07/10 13:00:43;;;;;;;0.20;0.13;;;;;;;19.24;100.00;102517.25;10409041;28;20087;-76
2022/07/10 13:05:45;;;;;;;0.13;0.10;;;;;;;18.79;100.00;102507.78;10409145;28;20442;-76
2022/07/10 13:10:49;;;;;;;0.10;0.05;;;;;;;18.86;100.00;102520.06;10409165;28;20050;-76
2022/07/10 13:15:53;;;;;;;0.08;0.08;;;;;;;19.31;100.00;102516.50;10409537;28;20057;-75
2022/07/10 13:20:58;;;;;;;0.10;0.10;;;;;;;19.46;100.00;102504.50;10408250;28;20045;-76
2022/07/10 13:26:04;;;;;;;0.00;0.00;;;;;;;19.31;100.00;102508.66;10426908;28;20507;-76
2022/07/10 13:31:08;;;;;;;0.40;0.35;;;;;;;19.32;100.00;102504.28;10426344;28;20393;-75
2022/07/10 13:36:09;;;;;;;0.35;0.13;;;;;;;18.95;100.00;102511.53;10424214;28;20095;-75
2022/07/10 13:41:11;;;;;;;0.00;0.00;;;;;;;19.08;100.00;102515.25;10408245;28;20405;-75
2022/07/10 13:46:13;;;;;;;0.00;0.00;;;;;;;19.31;100.00;102505.13;10441454;28;20080;-76
2022/07/10 13:51:15;;;;;;;0.00;0.00;;;;;;;19.29;100.00;102497.28;10449457;28;20069;-75
2022/07/10 13:56:17;;;;;;;0.00;0.00;;;;;;;19.29;100.00;102489.44;10449290;28;20041;-75
2022/07/10 14:01:18;;;;;;;0.00;0.00;;;;;;;19.37;100.00;102486.06;10467307;28;20053;-75
2022/07/10 14:06:23;;;;;;;0.00;0.00;;;;;;;19.85;100.00;102490.22;10467021;28;20053;-75
2022/07/10 14:11:26;;;;;;;0.10;0.10;;;;;;;20.11;100.00;102481.81;10431840;28;20056;-75
2022/07/10 14:16:28;;;;;;;0.10;0.10;;;;;;;20.39;100.00;102483.00;10432043;28;20052;-75
2022/07/10 14:21:30;;;;;;;0.10;0.10;;;;;;;20.20;100.00;102483.66;10465415;28;20052;-75
2022/07/10 14:26:33;;;;;;;0.08;0.08;;;;;;;19.65;97.73;102480.34;10447219;28;20061;-76
2022/07/10 14:31:35;;;;;;;0.13;0.10;;;;;;;19.95;100.00;102484.25;10446859;28;20041;-75
2022/07/10 14:36:37;;;;;;;0.10;0.10;;;;;;;20.21;100.00;102473.22;10446404;28;20041;-76
2022/07/10 14:41:41;;;;;;;0.08;0.08;;;;;;;20.20;95.94;102458.38;10446475;28;20143;-76
2022/07/10 14:46:43;;;;;;;0.88;0.20;;;;;;;20.17;93.96;102450.47;10428585;28;20045;-76
2022/07/10 14:51:45;;;;;;;0.25;0.10;;;;;;;20.92;97.31;102447.69;10446313;28;20045;-75
2022/07/10 14:56:46;;;;;;;0.10;0.10;;;;;;;20.89;95.22;102445.03;10440796;28;20502;-75
2022/07/10 15:01:48;;;;;;;0.10;0.10;;;;;;;20.48;88.51;102432.47;10458321;28;20041;-76
2022/07/10 15:06:50;;;;;;;0.05;0.03;;;;;;;21.07;92.31;102440.81;10459325;28;20098;-76
2022/07/10 15:11:53;;;;;;;0.20;0.10;;;;;;;21.11;90.03;102421.59;10458306;28;20074;-76
2022/07/10 15:16:55;;;;;;;0.05;0.05;;;;;;;20.83;86.17;102424.03;10441424;28;20051;-76
2022/07/10 15:22:00;;;;;;;0.20;0.17;;;;;;;20.74;84.59;102416.09;10439617;28;20065;-76
2022/07/10 15:27:02;;;;;;;0.00;0.00;;;;;;;20.86;87.69;102421.47;10439594;28;20048;-76
2022/07/10 15:32:04;;;;;;;0.28;0.05;;;;;;;20.84;86.57;102415.31;10457261;28;20508;-76
2022/07/10 15:37:05;;;;;;;0.00;0.00;;;;;;;20.49;83.83;102415.91;10439331;28;20053;-76
2022/07/10 15:42:08;;;;;;;0.22;0.13;;;;;;;20.64;85.54;102409.03;10455840;28;20033;-76
2022/07/10 15:47:11;;;;;;;0.03;0.03;;;;;;;20.67;82.88;102395.94;10438865;28;20049;-75
2022/07/10 15:52:13;;;;;;;0.15;0.15;;;;;;;20.75;85.44;102407.41;10438518;28;20052;-76
2022/07/10 15:57:14;;;;;;;0.10;0.10;;;;;;;20.31;85.37;102400.91;10456818;28;20053;-75
2022/07/10 16:02:16;;;;;;;0.17;0.17;;;;;;;20.24;84.65;102397.34;10438515;28;20072;-75
2022/07/10 16:07:18;;;;;;;0.15;0.10;;;;;;;20.36;87.86;102393.09;10439465;28;20049;-76
2022/07/10 16:12:19;;;;;;;0.65;0.25;;;;;;;20.25;86.34;102390.41;10422829;28;20045;-75
2022/07/10 16:17:21;;;;;;;0.08;0.08;;;;;;;20.25;86.21;102380.78;10438247;28;20496;-76
2022/07/10 16:22:23;;;;;;;0.00;0.00;;;;;;;20.41;88.01;102378.31;10438187;28;20056;-76
2022/07/10 16:27:25;;;;;;;0.15;0.15;;;;;;;20.29;86.85;102372.09;10439641;28;20095;-76
2022/07/10 16:32:26;;;;;;;0.10;0.10;;;;;;;20.45;91.04;102374.84;10437831;28;20056;-75
2022/07/10 16:37:28;;;;;;;0.00;0.00;;;;;;;20.56;88.64;102369.69;10437729;28;20512;-76
2022/07/10 16:42:30;;;;;;;0.10;0.10;;;;;;;20.50;90.35;102375.78;10437970;28;20041;-76
2022/07/10 16:47:31;;;;;;;0.00;0.00;;;;;;;20.50;86.92;102367.91;10438551;28;20056;-75
2022/07/10 16:52:37;;;;;;;0.38;0.22;;;;;;;20.40;86.29;102363.47;10467531;28;20037;-80
2022/07/10 16:57:39;;;;;;;0.20;0.10;;;;;;;20.33;85.80;102364.28;10471515;28;20072;-78
2022/07/10 17:02:41;;;;;;;0.10;0.10;;;;;;;20.47;85.03;102360.03;10452042;28;20061;-79
2022/07/10 17:07:43;;;;;;;0.28;0.03;;;;;;;20.54;88.51;102353.97;10455384;28;20471;-79
2022/07/10 17:12:45;;;;;;;0.00;0.00;;;;;;;20.74;86.12;102342.78;10440710;28;20041;-79
2022/07/10 17:17:47;;;;;;;0.00;0.00;;;;;;;20.83;86.90;102342.84;10447755;28;20049;-79
2022/07/10 17:22:49;;;;;;;0.00;0.00;;;;;;;20.51;85.16;102345.22;10472233;28;20492;-80
2022/07/10 17:27:51;;;;;;;0.80;0.35;;;;;;;20.65;87.70;102340.09;10455170;28;20060;-79
2022/07/10 17:32:52;;;;;;;0.10;0.10;;;;;;;20.56;88.97;102333.94;10443291;28;20392;-79
2022/07/10 17:38:00;;;;;;;0.00;0.00;;;;;;;20.50;89.33;102328.66;10426026;28;20599;-79
2022/07/10 17:43:09;;;;;;;0.20;0.10;;;;;;;20.60;91.40;102325.22;10451933;28;20071;-79
2022/07/10 17:48:11;;;;;;;0.00;0.00;;;;;;;20.44;88.74;102331.19;10454298;28;20037;-79
2022/07/10 17:53:13;;;;;;;0.10;0.10;;;;;;;20.59;89.62;102327.81;10438850;28;20040;-79
2022/07/10 17:58:14;;;;;;;0.03;0.03;;;;;;;20.45;90.82;102331.22;10454185;28;20037;-79
2022/07/10 18:03:16;;;;;;;0.20;0.20;;;;;;;20.43;92.24;102330.34;10447975;28;20051;-79
2022/07/10 18:08:19;;;;;;;0.30;0.30;;;;;;;20.26;91.46;102335.44;10446151;28;20199;-79
2022/07/10 18:13:21;;;;;;;0.03;0.03;;;;;;;20.11;91.23;102335.31;10420706;28;20088;-78
2022/07/10 18:18:23;;;;;;;0.00;0.00;;;;;;;20.16;90.57;102333.59;10454280;28;20056;-80
2022/07/10 18:23:26;;;;;;;0.00;0.00;;;;;;;20.09;90.88;102326.56;10436465;28;20052;-79
2022/07/10 18:28:28;;;;;;;0.10;0.10;;;;;;;19.99;90.22;102327.34;10434152;28;20041;-79
2022/07/10 18:39:06;;;;;;;0.00;0.00;;;;;;;20.09;92.79;102310.84;10434010;28;20087;-80
2022/07/10 18:44:15;;;;;;;0.05;0.03;;;;;;;20.11;93.34;102315.25;10453460;28;20040;-79
2022/07/10 18:49:18;;;;;;;0.05;0.05;;;;;;;19.98;91.97;102313.38;10435237;28;20053;-79
2022/07/10 18:54:20;;;;;;;0.25;0.10;;;;;;;20.18;92.73;102312.69;10452998;28;20484;-79
2022/07/10 18:59:22;;;;;;;0.10;0.10;;;;;;;20.02;93.46;102316.91;10453518;28;20045;-79
2022/07/10 19:04:24;;;;;;;0.20;0.03;;;;;;;19.76;96.22;102317.50;10435286;28;20138;-80
2022/07/10 19:09:29;;;;;;;0.03;0.03;;;;;;;19.60;96.62;102314.72;10434025;28;20045;-79
2022/07/10 19:14:33;;;;;;;5.07;0.22;;;;;;;19.34;99.12;102317.06;10452842;28;20091;-79
2022/07/10 19:19:36;;;;;;;0.10;0.10;;;;;;;19.39;98.79;102320.59;10458781;28;20058;-79
2022/07/10 19:24:39;;;;;;;0.20;0.20;;;;;;;19.40;99.94;102330.19;10459882;28;20491;-79
2022/07/10 19:29:40;;;;;;;0.00;0.00;;;;;;;19.24;100.00;102323.00;10457275;28;20525;-79
2022/07/10 19:34:42;;;;;;;0.03;0.03;;;;;;;19.17;100.00;102325.56;10423404;28;20108;-79
2022/07/10 19:39:44;;;;;;;0.40;0.22;;;;;;;19.01;100.00;102328.81;10439407;28;20049;-80
2022/07/10 19:44:46;;;;;;;0.17;0.10;;;;;;;18.75;100.00;102331.91;10427711;28;20538;-80
2022/07/10 19:49:51;;;;;;;0.10;0.10;;;;;;;18.36;100.00;102333.91;10440544;28;20095;-80
2022/07/10 19:54:53;;;;;;;0.00;0.00;;;;;;;18.29;100.00;102342.50;10440754;28;20079;-80
2022/07/10 19:59:55;;;;;;;0.38;0.13;;;;;;;18.31;100.00;102346.00;10443268;28;20152;-79
2022/07/10 20:04:56;;;;;;;0.43;0.30;;;;;;;18.24;100.00;102352.84;10446367;28;20480;-79
2022/07/10 20:09:58;;;;;;;0.82;0.20;;;;;;;18.17;100.00;102355.34;10464551;28;20049;-79
2022/07/10 20:15:01;;;;;;;0.05;0.05;;;;;;;18.31;100.00;102353.84;10426914;28;20480;-80
2022/07/10 20:20:04;;;;;;;0.20;0.20;;;;;;;18.11;100.00;102357.84;10440775;28;20057;-79
2022/07/10 20:25:07;;;;;;;0.05;0.03;;;;;;;18.19;100.00;102358.84;10457432;28;20037;-79
2022/07/10 20:30:13;;;;;;;0.20;0.10;;;;;;;18.19;100.00;102358.84;10437344;28;20059;-79
2022/07/10 20:35:15;;;;;;;0.40;0.13;;;;;;;18.22;100.00;102364.09;10459602;28;20038;-79
2022/07/10 20:40:17;;;;;;;0.65;0.28;;;;;;;18.35;100.00;102358.28;10438737;28;20068;-80
2022/07/10 20:45:20;;;;;;;0.30;0.30;;;;;;;18.38;100.00;102355.69;10431176;28;20067;-79
2022/07/10 20:50:22;;;;;;;0.15;0.13;;;;;;;18.38;100.00;102360.03;10449896;28;20120;-79
2022/07/10 20:55:24;;;;;;;1.40;0.43;;;;;;;18.28;100.00;102363.34;10456321;28;20112;-80
2022/07/10 21:00:26;;;;;;;0.17;0.15;;;;;;;18.05;100.00;102367.31;10467248;28;20045;-78
2022/07/10 21:05:32;;;;;;;1.15;0.50;;;;;;;18.20;100.00;102365.84;10451413;28;20385;-80
2022/07/10 21:10:43;;;;;;;0.20;0.20;;;;;;;18.21;100.00;102364.94;10457095;28;20059;-79
2022/07/10 21:15:45;;;;;;;0.08;0.08;;;;;;;18.09;100.00;102370.84;10450595;28;20060;-77
2022/07/10 21:20:47;;;;;;;0.63;0.40;;;;;;;18.12;100.00;102375.25;10435280;28;20484;-79
2022/07/10 21:25:49;;;;;;;0.00;0.00;;;;;;;18.18;100.00;102378.81;10433344;28;20136;-79
2022/07/10 21:30:51;;;;;;;0.10;0.10;;;;;;;18.19;100.00;102384.94;10469698;28;20047;-79
2022/07/10 21:35:52;;;;;;;0.65;0.63;;;;;;;18.06;100.00;102382.09;10455578;28;20080;-79
2022/07/10 21:40:54;;;;;;;0.20;0.20;;;;;;;17.93;100.00;102382.69;10453456;28;20120;-77
2022/07/10 21:45:56;;;;;;;1.52;1.13;;;;;;;17.85;100.00;102384.25;10453392;28;20045;-78
2022/07/10 21:50:59;;;;;;;3.03;0.20;;;;;;;17.92;100.00;102386.13;10454000;28;20098;-78
2022/07/10 21:56:04;;;;;;;0.00;0.00;;;;;;;17.66;100.00;102394.34;10454972;28;20100;-77
2022/07/10 22:01:06;;;;;;;0.13;0.10;;;;;;;17.70;100.00;102383.09;10475017;28;20458;-78
2022/07/10 22:06:08;;;;;;;0.00;0.00;;;;;;;17.54;100.00;102391.47;10457603;28;20045;-78
2022/07/10 22:11:10;;;;;;;0.20;0.20;;;;;;;17.38;100.00;102396.38;10455413;28;20037;-77
2022/07/10 22:16:12;;;;;;;0.00;0.00;;;;;;;17.60;100.00;102389.00;10436482;28;20068;-78
2022/07/10 22:21:17;;;;;;;0.28;0.10;;;;;;;17.59;100.00;102392.44;10478452;28;20048;-78
2022/07/10 22:26:20;;;;;;;0.05;0.03;;;;;;;17.63;100.00;102391.66;10457334;28;20112;-78
2022/07/10 22:31:22;;;;;;;0.00;0.00;;;;;;;17.62;100.00;102391.63;10438948;28;20064;-78
2022/07/10 22:36:25;;;;;;;2.25;0.25;;;;;;;17.66;100.00;102394.34;10461448;28;20191;-78
2022/07/10 22:41:30;;;;;;;3.50;0.30;;;;;;;17.74;100.00;102392.78;10458215;28;20075;-78
2022/07/10 22:46:31;;;;;;;0.00;0.00;;;;;;;17.73;100.00;102392.72;10456149;28;20045;-78
2022/07/10 22:51:33;;;;;;;0.05;0.05;;;;;;;17.61;100.00;102395.94;10455424;28;20040;-78
2022/07/10 22:56:35;;;;;;;0.03;0.03;;;;;;;17.71;100.00;102394.44;10454899;28;20037;-79
2022/07/10 23:01:36;;;;;;;0.20;0.10;;;;;;;17.68;100.00;102387.44;10474161;28;20052;-79
2022/07/10 23:06:39;;;;;;;0.00;0.00;;;;;;;17.71;100.00;102384.88;10474108;28;20045;-79
2022/07/10 23:11:40;;;;;;;0.13;0.10;;;;;;;17.55;100.00;102388.00;10455668;28;20128;-79
2022/07/10 23:16:42;;;;;;;0.00;0.00;;;;;;;17.54;100.00;102383.63;10469620;28;20163;-78
2022/07/10 23:21:44;;;;;;;0.05;0.05;;;;;;;17.56;100.00;102381.94;10463755;28;20472;-78